createdAt,value
2022-12-09T00:00:09.435Z,100705.27
2022-12-09T00:01:31.483Z,100705.58
2022-12-09T00:02:33.321Z,100708.02
2022-12-09T00:03:36.057Z,100702.52
2022-12-09T00:04:37.914Z,100707.45
2022-12-09T00:05:40.617Z,100706.06
2022-12-09T00:06:42.609Z,100708.30
2022-12-09T00:07:44.439Z,100714.09
2022-12-09T00:08:46.849Z,100712.05
2022-12-09T00:09:48.897Z,100718.33
2022-12-09T00:10:50.985Z,100718.16
2022-12-09T00:11:53.050Z,100718.39
2022-12-09T00:12:55.719Z,100719.44
2022-12-09T00:13:59.041Z,100718.46
2022-12-09T00:15:00.781Z,100719.30
2022-12-09T00:16:21.986Z,100720.13
2022-12-09T00:17:23.768Z,100720.73
2022-12-09T00:18:26.066Z,100719.48
2022-12-09T00:19:27.816Z,100718.85
2022-12-09T00:20:29.820Z,100718.15
2022-12-09T00:21:33.274Z,100718.52
2022-12-09T00:22:34.922Z,100721.91
2022-12-09T00:23:36.817Z,100724.73
2022-12-09T00:24:38.716Z,100723.09
2022-12-09T00:25:40.659Z,100724.43
2022-12-09T00:26:42.604Z,100725.65
2022-12-09T00:27:44.372Z,100722.61
2022-12-09T00:28:47.953Z,100725.31
2022-12-09T00:29:49.547Z,100726.42
2022-12-09T00:30:51.679Z,100724.91
2022-12-09T00:31:53.945Z,100725.75
2022-12-09T00:32:55.782Z,100729.13
2022-12-09T00:34:01.877Z,100728.98
2022-12-09T00:35:04.315Z,100730.58
2022-12-09T00:36:09.298Z,100728.63
2022-12-09T00:37:11.362Z,100727.48
2022-12-09T00:38:13.203Z,100726.83
2022-12-09T00:39:15.997Z,100727.57
2022-12-09T00:40:17.757Z,100730.33
2022-12-09T00:41:19.772Z,100730.15
2022-12-09T00:42:21.795Z,100735.34
2022-12-09T00:43:23.543Z,100734.60
2022-12-09T00:44:25.241Z,100733.77
2022-12-09T00:45:27.009Z,100738.71
2022-12-09T00:46:29.101Z,100735.57
2022-12-09T00:47:31.090Z,100738.74
2022-12-09T00:48:37.779Z,100740.66
2022-12-09T00:49:40.113Z,100737.19
2022-12-09T00:50:41.830Z,100741.54
2022-12-09T00:51:44.612Z,100741.48
2022-12-09T00:52:46.259Z,100741.29
2022-12-09T00:53:53.822Z,100739.16
2022-12-09T00:54:56.023Z,100740.63
2022-12-09T00:55:58.025Z,100737.93
2022-12-09T00:56:59.941Z,100739.94
2022-12-09T00:58:02.015Z,100742.66
2022-12-09T00:59:03.996Z,100740.94
2022-12-09T01:00:07.149Z,100740.33
2022-12-09T01:01:09.667Z,100740.96
2022-12-09T01:02:11.787Z,100739.86
2022-12-09T01:03:16.320Z,100740.65
2022-12-09T01:04:18.245Z,100742.64
2022-12-09T01:05:19.992Z,100741.73
2022-12-09T01:06:25.540Z,100740.06
2022-12-09T01:07:27.469Z,100742.00
2022-12-09T01:08:29.980Z,100743.61
2022-12-09T01:09:34.145Z,100741.89
2022-12-09T01:10:38.769Z,100743.83
2022-12-09T01:11:40.521Z,100743.66
2022-12-09T01:12:42.653Z,100747.45
2022-12-09T01:13:45.127Z,100747.84
2022-12-09T01:14:47.131Z,100742.98
2022-12-09T01:15:49.022Z,100744.27
2022-12-09T01:16:50.880Z,100745.36
2022-12-09T01:17:52.845Z,100746.27
2022-12-09T01:18:57.313Z,100744.02
2022-12-09T01:19:59.069Z,100746.25
2022-12-09T01:21:01.495Z,100744.81
2022-12-09T01:22:03.474Z,100748.88
2022-12-09T01:23:05.395Z,100746.27
2022-12-09T01:24:11.608Z,100747.65
2022-12-09T01:25:14.050Z,100748.92
2022-12-09T01:26:16.742Z,100749.14
2022-12-09T01:27:18.519Z,100749.48
2022-12-09T01:28:20.660Z,100750.07
2022-12-09T01:29:22.347Z,100750.82
2022-12-09T01:30:24.417Z,100755.11
2022-12-09T01:31:26.546Z,100752.59
2022-12-09T01:32:28.352Z,100754.77
2022-12-09T01:33:30.104Z,100754.64
2022-12-09T01:34:32.007Z,100750.71
2022-12-09T01:35:33.641Z,100748.70
2022-12-09T01:36:35.670Z,100749.86
2022-12-09T01:37:38.988Z,100749.46
2022-12-09T01:38:41.450Z,100748.02
2022-12-09T01:39:43.817Z,100746.39
2022-12-09T01:40:46.561Z,100750.02
2022-12-09T01:41:51.506Z,100751.09
2022-12-09T01:42:53.158Z,100750.20
2022-12-09T01:44:24.414Z,100753.02
2022-12-09T01:45:36.019Z,100750.91
2022-12-09T01:46:38.181Z,100755.40
2022-12-09T01:47:40.248Z,100756.23
2022-12-09T01:48:45.930Z,100755.30
2022-12-09T01:49:48.869Z,100755.69
2022-12-09T01:51:00.055Z,100756.61
2022-12-09T01:52:18.118Z,100756.69
2022-12-09T01:53:27.092Z,100758.02
2022-12-09T01:54:30.291Z,100754.54
2022-12-09T01:55:33.987Z,100750.21
2022-12-09T01:56:38.609Z,100753.42
2022-12-09T01:57:44.348Z,100749.89
2022-12-09T01:58:47.874Z,100750.73
2022-12-09T01:59:52.156Z,100748.41
2022-12-09T02:00:55.495Z,100749.71
2022-12-09T02:02:00.262Z,100749.08
2022-12-09T02:03:02.614Z,100747.17
2022-12-09T02:04:06.070Z,100748.94
2022-12-09T02:05:08.742Z,100745.73
2022-12-09T02:06:10.801Z,100748.25
2022-12-09T02:07:12.851Z,100745.59
2022-12-09T02:08:18.623Z,100744.79
2022-12-09T02:09:20.926Z,100747.10
2022-12-09T02:10:24.727Z,100747.84
2022-12-09T02:11:31.964Z,100745.41
2022-12-09T02:12:58.342Z,100747.31
2022-12-09T02:14:26.239Z,100746.84
2022-12-09T02:15:32.171Z,100746.42
2022-12-09T02:16:53.598Z,100746.04
2022-12-09T02:18:02.581Z,100741.29
2022-12-09T02:19:36.813Z,100744.96
2022-12-09T02:21:04.576Z,100745.42
2022-12-09T02:22:08.011Z,100743.17
2022-12-09T02:23:16.428Z,100744.70
2022-12-09T02:24:28.083Z,100745.39
2022-12-09T02:25:39.437Z,100742.89
2022-12-09T02:26:48.472Z,100748.98
2022-12-09T02:28:19.342Z,100748.90
2022-12-09T02:29:31.383Z,100751.25
2022-12-09T02:32:45.547Z,100754.00
2022-12-09T02:34:16.704Z,100752.16
2022-12-09T02:35:32.177Z,100753.70
2022-12-09T02:36:59.806Z,100750.71
2022-12-09T02:38:16.845Z,100753.50
2022-12-09T02:39:25.660Z,100752.20
2022-12-09T02:40:33.280Z,100757.31
2022-12-09T02:41:41.161Z,100753.81
2022-12-09T02:42:46.531Z,100755.00
2022-12-09T02:43:53.375Z,100756.05
2022-12-09T02:45:02.535Z,100758.91
2022-12-09T02:46:07.860Z,100762.27
2022-12-09T02:47:14.663Z,100759.14
2022-12-09T02:48:22.351Z,100764.38
2022-12-09T02:49:27.697Z,100767.05
2022-12-09T02:50:34.356Z,100767.85
2022-12-09T02:51:41.526Z,100767.49
2022-12-09T02:52:45.011Z,100770.13
2022-12-09T02:53:51.592Z,100771.58
2022-12-09T02:54:54.771Z,100771.98
2022-12-09T02:55:58.066Z,100770.27
2022-12-09T02:57:05.839Z,100769.41
2022-12-09T02:58:07.962Z,100772.63
2022-12-09T02:59:10.708Z,100773.39
2022-12-09T03:00:15.028Z,100772.16
2022-12-09T03:01:31.791Z,100775.40
2022-12-09T03:02:42.948Z,100774.45
2022-12-09T03:03:45.416Z,100771.70
2022-12-09T03:05:09.580Z,100774.79
2022-12-09T03:06:17.873Z,100771.14
2022-12-09T03:07:31.685Z,100769.69
2022-12-09T03:08:56.715Z,100769.59
2022-12-09T03:10:11.522Z,100770.06
2022-12-09T03:11:17.204Z,100767.92
2022-12-09T03:12:21.298Z,100770.38
2022-12-09T03:13:41.762Z,100773.80
2022-12-09T03:14:49.080Z,100773.41
2022-12-09T03:16:00.981Z,100776.14
2022-12-09T03:17:13.700Z,100775.86
2022-12-09T03:18:18.622Z,100778.25
2022-12-09T03:19:42.854Z,100782.89
2022-12-09T03:20:47.031Z,100782.46
2022-12-09T03:21:52.382Z,100784.48
2022-12-09T03:22:58.482Z,100778.93
2022-12-09T03:24:01.742Z,100777.27
2022-12-09T03:25:14.183Z,100777.58
2022-12-09T03:26:18.064Z,100775.94
2022-12-09T03:27:26.060Z,100774.22
2022-12-09T03:28:33.681Z,100773.02
2022-12-09T03:29:40.508Z,100776.86
2022-12-09T03:30:44.917Z,100780.20
2022-12-09T03:31:48.655Z,100783.39
2022-12-09T03:32:52.515Z,100780.38
2022-12-09T03:33:57.914Z,100776.72
2022-12-09T03:35:08.611Z,100780.86
2022-12-09T03:36:13.732Z,100783.18
2022-12-09T03:37:18.245Z,100786.95
2022-12-09T03:38:22.893Z,100787.58
2022-12-09T03:39:29.253Z,100784.60
2022-12-09T03:40:35.181Z,100788.41
2022-12-09T03:41:38.666Z,100789.35
2022-12-09T03:42:53.173Z,100782.12
2022-12-09T03:43:59.207Z,100780.94
2022-12-09T03:45:06.075Z,100783.32
2022-12-09T03:46:08.375Z,100786.66
2022-12-09T03:47:10.745Z,100789.47
2022-12-09T03:48:13.251Z,100787.68
2022-12-09T03:49:15.489Z,100786.89
2022-12-09T03:50:17.695Z,100787.16
2022-12-09T03:51:30.191Z,100787.99
2022-12-09T03:53:04.542Z,100787.98
2022-12-09T03:54:15.173Z,100786.22
2022-12-09T03:55:37.006Z,100789.01
2022-12-09T03:56:43.519Z,100788.52
2022-12-09T03:57:51.038Z,100786.86
2022-12-09T03:58:54.554Z,100790.74
2022-12-09T04:00:00.721Z,100790.60
2022-12-09T04:01:03.026Z,100789.74
2022-12-09T04:02:06.653Z,100789.15
2022-12-09T04:03:12.766Z,100790.22
2022-12-09T04:04:15.359Z,100789.73
2022-12-09T04:05:17.228Z,100790.58
2022-12-09T04:06:19.035Z,100790.36
2022-12-09T04:07:20.857Z,100790.45
2022-12-09T04:08:23.334Z,100786.82
2022-12-09T04:09:25.337Z,100788.13
2022-12-09T04:10:27.663Z,100788.03
2022-12-09T04:11:31.602Z,100789.63
2022-12-09T04:12:33.383Z,100787.08
2022-12-09T04:13:35.229Z,100792.77
2022-12-09T04:14:37.091Z,100790.86
2022-12-09T04:15:39.237Z,100791.55
2022-12-09T04:16:40.984Z,100793.32
2022-12-09T04:17:43.237Z,100789.33
2022-12-09T04:18:45.743Z,100790.87
2022-12-09T04:19:47.995Z,100791.30
2022-12-09T04:20:49.885Z,100790.98
2022-12-09T04:21:51.672Z,100799.20
2022-12-09T04:22:53.380Z,100795.30
2022-12-09T04:23:55.557Z,100799.02
2022-12-09T04:24:57.311Z,100800.70
2022-12-09T04:25:59.098Z,100803.14
2022-12-09T04:27:00.680Z,100805.93
2022-12-09T04:28:02.869Z,100805.89
2022-12-09T04:29:05.015Z,100806.38
2022-12-09T04:30:07.886Z,100808.52
2022-12-09T04:31:12.785Z,100807.48
2022-12-09T04:32:14.694Z,100806.21
2022-12-09T04:33:16.607Z,100805.57
2022-12-09T04:34:18.664Z,100804.11
2022-12-09T04:35:20.507Z,100806.88
2022-12-09T04:36:22.492Z,100804.52
2022-12-09T04:37:25.755Z,100807.59
2022-12-09T04:38:27.635Z,100809.17
2022-12-09T04:39:30.232Z,100808.14
2022-12-09T04:40:31.923Z,100806.98
2022-12-09T04:41:33.768Z,100808.16
2022-12-09T04:42:35.399Z,100806.26
2022-12-09T04:43:37.190Z,100810.59
2022-12-09T04:44:39.251Z,100811.10
2022-12-09T04:45:41.369Z,100812.23
2022-12-09T04:46:44.196Z,100816.10
2022-12-09T04:47:46.144Z,100816.64
2022-12-09T04:48:48.656Z,100815.95
2022-12-09T04:49:50.857Z,100815.21
2022-12-09T04:50:52.569Z,100821.27
2022-12-09T04:51:54.590Z,100821.02
2022-12-09T04:52:56.665Z,100820.74
2022-12-09T04:53:58.623Z,100819.25
2022-12-09T04:55:00.414Z,100824.40
2022-12-09T04:56:05.466Z,100820.52
2022-12-09T04:57:08.506Z,100824.45
2022-12-09T04:58:10.248Z,100826.20
2022-12-09T04:59:12.155Z,100826.55
2022-12-09T05:00:15.229Z,100826.20
2022-12-09T05:01:24.942Z,100824.67
2022-12-09T05:02:32.621Z,100823.19
2022-12-09T05:03:35.945Z,100824.90
2022-12-09T05:04:38.677Z,100826.92
2022-12-09T05:05:40.968Z,100827.50
2022-12-09T05:06:43.312Z,100828.50
2022-12-09T05:07:47.495Z,100828.46
2022-12-09T05:08:50.130Z,100823.86
2022-12-09T05:09:52.427Z,100823.61
2022-12-09T05:10:54.598Z,100826.70
2022-12-09T05:11:57.582Z,100819.96
2022-12-09T05:12:59.307Z,100821.23
2022-12-09T05:14:01.250Z,100822.61
2022-12-09T05:15:03.546Z,100824.13
2022-12-09T05:16:15.376Z,100827.49
2022-12-09T05:17:18.195Z,100826.23
2022-12-09T05:18:20.463Z,100826.98
2022-12-09T05:19:22.677Z,100829.80
2022-12-09T05:20:28.587Z,100824.02
2022-12-09T05:21:30.428Z,100825.16
2022-12-09T05:22:33.070Z,100822.37
2022-12-09T05:23:36.305Z,100821.72
2022-12-09T05:24:40.582Z,100821.98
2022-12-09T05:25:42.301Z,100820.61
2022-12-09T05:26:44.577Z,100823.80
2022-12-09T05:27:46.620Z,100820.27
2022-12-09T05:28:49.487Z,100823.58
2022-12-09T05:29:51.531Z,100824.48
2022-12-09T05:30:53.352Z,100822.64
2022-12-09T05:31:55.367Z,100825.55
2022-12-09T05:32:57.574Z,100821.81
2022-12-09T05:33:59.820Z,100823.84
2022-12-09T05:35:01.991Z,100826.23
2022-12-09T05:36:07.768Z,100824.41
2022-12-09T05:37:14.718Z,100828.63
2022-12-09T05:38:16.782Z,100829.85
2022-12-09T05:39:18.759Z,100833.46
2022-12-09T05:40:21.161Z,100830.60
2022-12-09T05:41:24.265Z,100830.05
2022-12-09T05:42:26.417Z,100829.24
2022-12-09T05:43:28.284Z,100831.18
2022-12-09T05:44:30.266Z,100829.39
2022-12-09T05:45:31.876Z,100832.42
2022-12-09T05:46:33.822Z,100834.80
2022-12-09T05:47:36.813Z,100834.04
2022-12-09T05:48:39.120Z,100832.63
2022-12-09T05:49:41.520Z,100835.29
2022-12-09T05:50:43.382Z,100836.77
2022-12-09T05:51:45.086Z,100835.64
2022-12-09T05:52:47.223Z,100836.94
2022-12-09T05:53:49.284Z,100841.05
2022-12-09T05:54:51.258Z,100835.74
2022-12-09T05:55:53.345Z,100833.77
2022-12-09T05:56:57.418Z,100835.91
2022-12-09T05:57:59.694Z,100835.92
2022-12-09T05:59:01.935Z,100834.36
2022-12-09T06:00:06.731Z,100833.53
2022-12-09T06:01:14.365Z,100834.23
2022-12-09T06:02:16.278Z,100836.13
2022-12-09T06:03:18.749Z,100834.96
2022-12-09T06:04:21.210Z,100838.16
2022-12-09T06:05:23.044Z,100840.18
2022-12-09T06:06:27.637Z,100841.11
2022-12-09T06:07:30.315Z,100838.37
2022-12-09T06:08:32.596Z,100835.13
2022-12-09T06:09:34.622Z,100840.20
2022-12-09T06:10:40.368Z,100836.85
2022-12-09T06:11:42.559Z,100836.39
2022-12-09T06:12:44.230Z,100839.52
2022-12-09T06:13:47.306Z,100842.57
2022-12-09T06:14:49.308Z,100840.02
2022-12-09T06:15:51.290Z,100839.36
2022-12-09T06:16:53.221Z,100838.23
2022-12-09T06:17:55.982Z,100838.17
2022-12-09T06:18:58.558Z,100839.30
2022-12-09T06:20:00.501Z,100838.01
2022-12-09T06:21:10.835Z,100840.63
2022-12-09T06:22:12.758Z,100844.17
2022-12-09T06:23:14.369Z,100843.30
2022-12-09T06:24:16.077Z,100842.84
2022-12-09T06:25:17.988Z,100845.73
2022-12-09T06:26:26.379Z,100848.30
2022-12-09T06:27:28.737Z,100847.61
2022-12-09T06:28:31.309Z,100851.80
2022-12-09T06:29:33.207Z,100853.02
2022-12-09T06:30:35.985Z,100854.15
2022-12-09T06:31:37.993Z,100854.58
2022-12-09T06:32:40.110Z,100854.86
2022-12-09T06:33:58.704Z,100860.70
2022-12-09T06:35:01.578Z,100859.86
2022-12-09T06:36:04.807Z,100859.37
2022-12-09T06:37:06.496Z,100861.46
2022-12-09T06:38:08.641Z,100863.42
2022-12-09T06:39:11.440Z,100860.83
2022-12-09T06:40:13.881Z,100861.58
2022-12-09T06:41:16.257Z,100861.11
2022-12-09T06:42:18.499Z,100863.77
2022-12-09T06:43:20.650Z,100861.41
2022-12-09T06:44:24.368Z,100861.63
2022-12-09T06:45:26.438Z,100864.16
2022-12-09T06:46:28.462Z,100866.94
2022-12-09T06:47:30.514Z,100869.63
2022-12-09T06:48:32.325Z,100865.86
2022-12-09T06:49:34.434Z,100864.88
2022-12-09T06:50:37.691Z,100865.65
2022-12-09T06:51:39.865Z,100864.55
2022-12-09T06:52:41.626Z,100870.55
2022-12-09T06:53:45.073Z,100864.71
2022-12-09T06:54:47.405Z,100864.31
2022-12-09T06:55:49.451Z,100866.70
2022-12-09T06:56:51.443Z,100865.27
2022-12-09T06:57:53.464Z,100867.98
2022-12-09T06:58:55.472Z,100868.52
2022-12-09T06:59:57.474Z,100874.66
2022-12-09T07:01:21.807Z,100873.33
2022-12-09T07:02:24.295Z,100874.06
2022-12-09T07:03:27.136Z,100873.85
2022-12-09T07:04:29.397Z,100872.24
2022-12-09T07:05:31.745Z,100870.10
2022-12-09T07:06:39.580Z,100874.55
2022-12-09T07:07:41.831Z,100871.91
2022-12-09T07:08:44.888Z,100872.73
2022-12-09T07:09:47.802Z,100875.91
2022-12-09T07:10:56.102Z,100873.23
2022-12-09T07:11:58.754Z,100873.91
2022-12-09T07:13:00.545Z,100872.98
2022-12-09T07:14:03.701Z,100870.88
2022-12-09T07:15:06.866Z,100869.77
2022-12-09T07:16:09.651Z,100871.30
2022-12-09T07:17:19.967Z,100868.14
2022-12-09T07:18:22.204Z,100868.08
2022-12-09T07:19:24.187Z,100867.29
2022-12-09T07:20:26.721Z,100866.17
2022-12-09T07:21:29.761Z,100864.19
2022-12-09T07:22:33.713Z,100865.26
2022-12-09T07:23:36.425Z,100868.43
2022-12-09T07:24:39.439Z,100869.84
2022-12-09T07:25:41.341Z,100866.83
2022-12-09T07:26:43.300Z,100865.45
2022-12-09T07:27:45.326Z,100867.05
2022-12-09T07:28:48.160Z,100867.51
2022-12-09T07:29:49.923Z,100867.31
2022-12-09T07:30:51.473Z,100865.67
2022-12-09T07:31:53.531Z,100870.30
2022-12-09T07:32:56.232Z,100869.65
2022-12-09T07:33:59.367Z,100872.77
2022-12-09T07:35:02.133Z,100873.76
2022-12-09T07:36:04.430Z,100874.38
2022-12-09T07:37:07.758Z,100875.45
2022-12-09T07:38:09.809Z,100875.51
2022-12-09T07:39:14.192Z,100876.05
2022-12-09T07:40:16.224Z,100879.95
2022-12-09T07:41:18.540Z,100881.15
2022-12-09T07:42:20.557Z,100880.80
2022-12-09T07:43:28.339Z,100881.66
2022-12-09T07:44:30.424Z,100881.11
2022-12-09T07:45:36.576Z,100884.41
2022-12-09T07:46:39.022Z,100883.29
2022-12-09T07:47:41.642Z,100881.48
2022-12-09T07:48:44.201Z,100881.13
2022-12-09T07:49:46.218Z,100879.34
2022-12-09T07:50:48.523Z,100879.67
2022-12-09T07:51:50.796Z,100880.92
2022-12-09T07:52:52.561Z,100883.16
2022-12-09T07:53:55.603Z,100886.23
2022-12-09T07:55:00.678Z,100881.92
2022-12-09T07:56:08.591Z,100878.89
2022-12-09T07:57:10.721Z,100880.82
2022-12-09T07:58:12.940Z,100879.55
2022-12-09T07:59:16.145Z,100876.77
2022-12-09T08:00:18.325Z,100882.02
2022-12-09T08:01:24.699Z,100879.90
2022-12-09T08:02:26.481Z,100884.98
2022-12-09T08:03:28.291Z,100885.77
2022-12-09T08:04:31.181Z,100886.98
2022-12-09T08:05:33.774Z,100888.23
2022-12-09T08:06:36.689Z,100890.17
2022-12-09T08:07:43.876Z,100890.77
2022-12-09T08:08:47.567Z,100891.58
2022-12-09T08:09:49.793Z,100896.45
2022-12-09T08:10:51.731Z,100896.29
2022-12-09T08:11:54.028Z,100891.64
2022-12-09T08:12:56.715Z,100893.35
2022-12-09T08:14:07.184Z,100889.91
2022-12-09T08:15:11.508Z,100883.08
2022-12-09T08:16:15.963Z,100886.64
2022-12-09T08:17:17.833Z,100884.48
2022-12-09T08:18:19.704Z,100887.29
2022-12-09T08:19:21.942Z,100884.63
2022-12-09T08:20:29.125Z,100882.38
2022-12-09T08:21:32.078Z,100883.24
2022-12-09T08:22:34.314Z,100882.70
2022-12-09T08:23:37.264Z,100886.41
2022-12-09T08:24:39.136Z,100883.86
2022-12-09T08:25:41.753Z,100884.23
2022-12-09T08:26:43.904Z,100884.81
2022-12-09T08:27:46.344Z,100887.58
2022-12-09T08:28:48.738Z,100886.63
2022-12-09T08:29:50.862Z,100885.46
2022-12-09T08:30:53.035Z,100883.48
2022-12-09T08:31:55.236Z,100888.66
2022-12-09T08:32:57.235Z,100887.98
2022-12-09T08:34:03.199Z,100889.02
2022-12-09T08:35:06.050Z,100890.24
2022-12-09T08:36:14.737Z,100892.34
2022-12-09T08:37:16.990Z,100893.54
2022-12-09T08:38:19.144Z,100891.78
2022-12-09T08:39:20.827Z,100896.66
2022-12-09T08:40:22.954Z,100895.70
2022-12-09T08:41:36.823Z,100895.89
2022-12-09T08:42:39.887Z,100894.11
2022-12-09T08:43:43.619Z,100894.76
2022-12-09T08:44:45.441Z,100896.92
2022-12-09T08:45:47.648Z,100897.69
2022-12-09T08:46:51.920Z,100893.95
2022-12-09T08:47:54.137Z,100895.30
2022-12-09T08:48:56.517Z,100897.02
2022-12-09T08:49:58.471Z,100902.83
2022-12-09T08:51:00.734Z,100896.87
2022-12-09T08:52:03.167Z,100905.05
2022-12-09T08:53:04.817Z,100904.64
2022-12-09T08:54:06.968Z,100903.08
2022-12-09T08:55:09.431Z,100905.73
2022-12-09T08:56:13.852Z,100904.95
2022-12-09T08:57:22.180Z,100901.67
2022-12-09T08:58:24.383Z,100899.09
2022-12-09T08:59:27.663Z,100904.27
2022-12-09T09:00:30.428Z,100900.76
2022-12-09T09:01:34.441Z,100901.74
2022-12-09T09:02:36.609Z,100900.56
2022-12-09T09:03:39.351Z,100898.25
2022-12-09T09:04:42.305Z,100900.52
2022-12-09T09:05:44.463Z,100898.56
2022-12-09T09:06:49.231Z,100895.08
2022-12-09T09:07:51.355Z,100891.77
2022-12-09T09:08:56.620Z,100898.27
2022-12-09T09:10:00.454Z,100895.10
2022-12-09T09:11:09.692Z,100898.20
2022-12-09T09:12:12.064Z,100896.88
2022-12-09T09:13:14.221Z,100896.96
2022-12-09T09:14:16.531Z,100897.73
2022-12-09T09:15:18.701Z,100898.23
2022-12-09T09:16:23.736Z,100897.84
2022-12-09T09:17:25.637Z,100895.52
2022-12-09T09:18:27.829Z,100895.76
2022-12-09T09:19:31.088Z,100898.05
2022-12-09T09:20:32.947Z,100894.30
2022-12-09T09:21:35.756Z,100894.29
2022-12-09T09:22:37.814Z,100894.10
2022-12-09T09:23:41.450Z,100892.61
2022-12-09T09:24:43.104Z,100888.63
2022-12-09T09:25:44.891Z,100890.23
2022-12-09T09:26:47.679Z,100889.80
2022-12-09T09:27:49.819Z,100886.44
2022-12-09T09:28:52.352Z,100885.66
2022-12-09T09:29:54.295Z,100885.81
2022-12-09T09:31:01.592Z,100884.80
2022-12-09T09:32:03.988Z,100887.36
2022-12-09T09:33:07.636Z,100888.10
2022-12-09T09:34:10.200Z,100886.44
2022-12-09T09:35:12.625Z,100889.91
2022-12-09T09:36:20.073Z,100888.46
2022-12-09T09:37:22.006Z,100884.66
2022-12-09T09:38:25.823Z,100888.17
2022-12-09T09:39:28.090Z,100886.73
2022-12-09T09:40:32.622Z,100879.77
2022-12-09T09:41:44.381Z,100879.45
2022-12-09T09:42:49.902Z,100883.30
2022-12-09T09:43:53.838Z,100882.30
2022-12-09T09:44:57.611Z,100880.98
2022-12-09T09:45:59.618Z,100882.30
2022-12-09T09:47:22.364Z,100882.77
2022-12-09T09:48:31.410Z,100881.23
2022-12-09T09:49:56.699Z,100887.05
2022-12-09T09:51:04.450Z,100882.09
2022-12-09T09:52:12.816Z,100883.52
2022-12-09T09:53:20.814Z,100885.40
2022-12-09T09:54:22.808Z,100884.38
2022-12-09T09:55:35.402Z,100887.46
2022-12-09T09:56:45.165Z,100887.41
2022-12-09T09:57:54.353Z,100883.30
2022-12-09T09:59:11.229Z,100883.42
2022-12-09T10:00:35.544Z,100885.41
2022-12-09T10:01:38.684Z,100883.58
2022-12-09T10:02:58.765Z,100882.83
2022-12-09T10:04:24.651Z,100883.26
2022-12-09T10:05:49.125Z,100883.70
2022-12-09T10:06:55.260Z,100885.98
2022-12-09T10:08:22.831Z,100886.62
2022-12-09T10:09:41.466Z,100885.52
2022-12-09T10:11:06.121Z,100889.38
2022-12-09T10:12:33.903Z,100890.04
2022-12-09T10:14:08.869Z,100887.20
2022-12-09T10:15:17.960Z,100883.94
2022-12-09T10:16:33.031Z,100885.42
2022-12-09T10:18:02.058Z,100883.34
2022-12-09T10:19:31.917Z,100875.62
2022-12-09T10:20:34.012Z,100874.05
2022-12-09T10:21:41.116Z,100874.54
2022-12-09T10:23:12.187Z,100873.54
2022-12-09T10:24:20.947Z,100874.67
2022-12-09T10:25:26.705Z,100874.23
2022-12-09T10:26:31.340Z,100874.90
2022-12-09T10:27:43.379Z,100876.02
2022-12-09T10:29:07.040Z,100875.04
2022-12-09T10:30:16.380Z,100878.11
2022-12-09T10:31:23.491Z,100880.81
2022-12-09T10:32:29.730Z,100881.28
2022-12-09T10:33:38.155Z,100882.02
2022-12-09T10:34:40.838Z,100883.20
2022-12-09T10:35:43.229Z,100880.11
2022-12-09T10:36:47.355Z,100884.52
2022-12-09T10:37:54.372Z,100885.86
2022-12-09T10:38:56.267Z,100882.71
2022-12-09T10:40:04.318Z,100883.41
2022-12-09T10:41:47.457Z,100884.41
2022-12-09T10:43:14.512Z,100886.78
2022-12-09T10:44:19.687Z,100887.08
2022-12-09T10:45:22.404Z,100887.13
2022-12-09T10:46:25.573Z,100888.30
2022-12-09T10:47:29.069Z,100886.32
2022-12-09T10:48:40.422Z,100888.11
2022-12-09T10:49:42.491Z,100884.42
2022-12-09T10:50:45.619Z,100884.45
2022-12-09T10:51:50.920Z,100887.56
2022-12-09T10:52:53.485Z,100884.69
2022-12-09T10:54:11.676Z,100889.77
2022-12-09T10:55:28.684Z,100889.92
2022-12-09T10:56:36.888Z,100889.92
2022-12-09T10:57:38.765Z,100887.20
2022-12-09T10:58:40.787Z,100890.95
2022-12-09T11:00:05.269Z,100894.28
2022-12-09T11:01:11.863Z,100895.55
2022-12-09T11:02:21.961Z,100899.65
2022-12-09T11:03:38.021Z,100898.30
2022-12-09T11:04:42.891Z,100896.83
2022-12-09T11:05:45.193Z,100896.58
2022-12-09T11:06:52.736Z,100898.80
2022-12-09T11:07:58.878Z,100899.85
2022-12-09T11:09:03.195Z,100906.73
2022-12-09T11:10:17.343Z,100903.27
2022-12-09T11:11:41.171Z,100905.64
2022-12-09T11:12:43.234Z,100905.63
2022-12-09T11:13:45.709Z,100907.41
2022-12-09T11:14:53.355Z,100903.20
2022-12-09T11:15:58.694Z,100903.58
2022-12-09T11:17:32.364Z,100901.34
2022-12-09T11:18:46.323Z,100899.14
2022-12-09T11:20:07.163Z,100903.05
2022-12-09T11:21:31.719Z,100904.69
2022-12-09T11:22:39.913Z,100907.23
2022-12-09T11:23:58.835Z,100906.94
2022-12-09T11:25:11.071Z,100908.48
2022-12-09T11:26:23.099Z,100907.48
2022-12-09T11:27:31.872Z,100909.33
2022-12-09T11:28:38.834Z,100911.49
2022-12-09T11:29:41.051Z,100911.37
2022-12-09T11:31:12.102Z,100912.16
2022-12-09T11:32:13.697Z,100913.27
2022-12-09T11:33:30.840Z,100912.58
2022-12-09T11:34:36.900Z,100915.86
2022-12-09T11:35:44.909Z,100913.41
2022-12-09T11:36:52.948Z,100910.34
2022-12-09T11:37:55.945Z,100909.89
2022-12-09T11:39:22.667Z,100911.02
2022-12-09T11:40:27.673Z,100912.05
2022-12-09T11:41:48.242Z,100914.71
2022-12-09T11:42:53.046Z,100910.88
2022-12-09T11:43:56.433Z,100910.61
2022-12-09T11:45:22.254Z,100910.66
2022-12-09T11:46:28.430Z,100906.38
2022-12-09T11:49:03.177Z,100907.54
2022-12-09T11:50:17.252Z,100909.69
2022-12-09T11:51:40.695Z,100904.11
2022-12-09T11:52:43.358Z,100905.77
2022-12-09T11:53:45.522Z,100899.52
2022-12-09T11:55:06.093Z,100901.31
2022-12-09T11:56:15.198Z,100899.17
2022-12-09T11:57:33.604Z,100898.27
2022-12-09T11:59:11.116Z,100891.86
2022-12-09T12:00:22.004Z,100896.30
2022-12-09T12:01:42.632Z,100892.09
2022-12-09T12:02:51.984Z,100896.27
2022-12-09T12:04:01.429Z,100898.14
2022-12-09T12:05:22.113Z,100895.15
2022-12-09T12:06:26.114Z,100897.91
2022-12-09T12:07:32.247Z,100899.77
2022-12-09T12:08:45.721Z,100905.21
2022-12-09T12:09:54.943Z,100905.89
2022-12-09T12:11:00.982Z,100904.04
2022-12-09T12:12:54.423Z,100904.77
2022-12-09T12:14:18.522Z,100906.94
2022-12-09T12:15:52.375Z,100905.44
2022-12-09T12:17:31.509Z,100902.34
2022-12-09T12:18:43.590Z,100902.56
2022-12-09T12:19:49.905Z,100904.13
2022-12-09T12:21:19.122Z,100905.08
2022-12-09T12:22:39.549Z,100906.57
2022-12-09T12:23:58.823Z,100902.92
2022-12-09T12:25:19.365Z,100906.26
2022-12-09T12:27:04.590Z,100907.95
2022-12-09T12:28:22.763Z,100905.94
2022-12-09T12:29:55.709Z,100912.78
2022-12-09T12:31:27.810Z,100909.51
2022-12-09T12:32:37.381Z,100908.61
2022-12-09T12:35:20.746Z,100912.05
2022-12-09T12:36:48.610Z,100909.63
2022-12-09T12:38:11.820Z,100910.77
2022-12-09T12:39:32.480Z,100909.98
2022-12-09T12:40:34.130Z,100911.77
2022-12-09T12:41:57.249Z,100911.99